^^
Atglen Borough Weather Station Historical Data
 
Daily Summary for July 16, 2018 Units:  English    Metric   Both
Daily Weekly Monthly Yearly Custom
  Current: High: Low: Average:
Temperature: 66.9 °F 70.2 °F 66.4 °F 67.9 °F
Dew Point: 66.0 °F 68.9 °F 65.5 °F 66.9 °F
Humidity: 97% 97% 96% 97%
Wind Speed: 0.0mph 0.9mph 0.0mph 0mph
Wind Gust: 0.0mph 2.0mph - -
WindCalm - - SSW
Pressure: 29.98 in 29.98 in 29.97 in -
Precipitation: 0.00 in      
Historical Graphs
 
 
Tabular Data for July 16, 2018
Time Temperature Dew Point Pressure Wind Wind Speed Wind Gust Humidity Rainfall Rate (Hourly)
00:04 70.2 °F 68.9 °F 29.98 in Calm     96% 0.00 in
00:09 70.0 °F 68.7 °F 29.98 in Calm     96% 0.00 in
00:14 70.0 °F 68.7 °F 29.98 in Calm     96% 0.00 in
00:19 69.8 °F 68.5 °F 29.98 in Calm     96% 0.00 in
00:24 69.6 °F 68.4 °F 29.98 in Calm     96% 0.00 in
00:29 69.6 °F 68.4 °F 29.98 in Calm     96% 0.00 in
00:34 69.6 °F 68.7 °F 29.98 in Calm     97% 0.00 in
00:39 69.4 °F 68.2 °F 29.98 in Calm     96% 0.00 in
00:44 69.4 °F 68.2 °F 29.98 in Calm     96% 0.00 in
00:49 69.3 °F 68.0 °F 29.98 in Calm     96% 0.00 in
00:54 69.3 °F 68.4 °F 29.98 in Calm     97% 0.00 in
00:59 69.3 °F 68.4 °F 29.98 in Calm     97% 0.00 in
01:04 69.3 °F 68.4 °F 29.98 in Calm     97% 0.00 in
01:09 69.3 °F 68.4 °F 29.98 in Calm     97% 0.00 in
01:14 69.3 °F 68.4 °F 29.98 in Calm     97% 0.00 in
01:19 69.3 °F 68.4 °F 29.98 in Calm     97% 0.00 in
01:24 69.3 °F 68.4 °F 29.98 in Calm     97% 0.00 in
01:29 68.9 °F 67.6 °F 29.98 in Calm     96% 0.00 in
01:34 68.9 °F 67.6 °F 29.98 in Calm     96% 0.00 in
01:39 68.7 °F 67.8 °F 29.98 in Calm     97% 0.00 in
01:44 68.5 °F 67.6 °F 29.98 in Calm     97% 0.00 in
01:49 68.5 °F 67.6 °F 29.98 in Calm     97% 0.00 in
01:54 68.4 °F 67.5 °F 29.98 in Calm     97% 0.00 in
01:59 68.4 °F 67.5 °F 29.98 in Calm     97% 0.00 in
02:04 68.4 °F 67.5 °F 29.98 in Calm     97% 0.00 in
02:09 68.4 °F 67.5 °F 29.98 in Calm     97% 0.00 in
02:14 68.4 °F 67.5 °F 29.98 in Calm     97% 0.00 in
02:19 68.5 °F 67.6 °F 29.98 in Calm     97% 0.00 in
02:24 68.4 °F 67.5 °F 29.98 in SSW 0.9 mph 2.0 mph 97% 0.00 in
02:29 68.0 °F 67.1 °F 29.98 in Calm     97% 0.00 in
02:34 68.0 °F 67.1 °F 29.97 in Calm     97% 0.00 in
02:39 68.0 °F 67.1 °F 29.98 in Calm   1.0 mph 97% 0.00 in
02:44 68.0 °F 67.1 °F 29.98 in Calm     97% 0.00 in
02:49 67.8 °F 66.9 °F 29.98 in Calm     97% 0.00 in
02:54 67.8 °F 66.9 °F 29.98 in Calm     97% 0.00 in
02:59 68.0 °F 67.1 °F 29.97 in Calm     97% 0.00 in
03:04 67.8 °F 66.9 °F 29.98 in Calm     97% 0.00 in
03:09 67.8 °F 66.9 °F 29.98 in Calm   1.0 mph 97% 0.00 in
03:14 67.8 °F 66.9 °F 29.97 in Calm   1.0 mph 97% 0.00 in
03:19 67.8 °F 66.9 °F 29.97 in Calm     97% 0.00 in
03:24 67.8 °F 66.9 °F 29.97 in Calm     97% 0.00 in
03:29 67.6 °F 66.7 °F 29.97 in Calm     97% 0.00 in
03:34 67.6 °F 66.7 °F 29.97 in Calm     97% 0.00 in
03:39 67.6 °F 66.7 °F 29.97 in Calm     97% 0.00 in
03:44 67.5 °F 66.6 °F 29.97 in Calm     97% 0.00 in
03:49 67.5 °F 66.6 °F 29.97 in Calm     97% 0.00 in
03:54 67.5 °F 66.6 °F 29.98 in Calm     97% 0.00 in
03:59 67.5 °F 66.6 °F 29.97 in Calm     97% 0.00 in
04:04 67.3 °F 66.4 °F 29.97 in Calm     97% 0.00 in
04:09 67.3 °F 66.4 °F 29.97 in Calm     97% 0.00 in
04:14 67.3 °F 66.4 °F 29.97 in Calm     97% 0.00 in
04:19 67.3 °F 66.4 °F 29.97 in Calm     97% 0.00 in
04:24 67.3 °F 66.4 °F 29.97 in Calm     97% 0.00 in
04:29 67.1 °F 66.2 °F 29.97 in Calm     97% 0.00 in
04:34 66.9 °F 66.0 °F 29.97 in Calm     97% 0.00 in
04:39 66.9 °F 66.0 °F 29.97 in Calm     97% 0.00 in
04:44 66.7 °F 65.8 °F 29.97 in Calm     97% 0.00 in
04:49 66.7 °F 65.8 °F 29.97 in Calm     97% 0.00 in
04:54 66.7 °F 65.8 °F 29.97 in Calm     97% 0.00 in
04:59 66.6 °F 65.7 °F 29.97 in Calm     97% 0.00 in
05:04 66.6 °F 65.7 °F 29.97 in Calm     97% 0.00 in
05:09 66.6 °F 65.7 °F 29.97 in Calm     97% 0.00 in
05:14 66.6 °F 65.7 °F 29.97 in Calm     97% 0.00 in
05:19 66.4 °F 65.5 °F 29.97 in Calm     97% 0.00 in
05:24 66.4 °F 65.5 °F 29.97 in Calm   1.0 mph 97% 0.00 in
05:29 66.6 °F 65.7 °F 29.97 in Calm     97% 0.00 in
05:34 66.6 °F 65.7 °F 29.98 in Calm     97% 0.00 in
05:39 66.6 °F 65.7 °F 29.98 in Calm     97% 0.00 in
05:44 66.6 °F 65.7 °F 29.97 in Calm     97% 0.00 in
05:49 66.6 °F 65.7 °F 29.97 in Calm     97% 0.00 in
05:54 66.6 °F 65.7 °F 29.98 in Calm     97% 0.00 in
05:59 66.4 °F 65.5 °F 29.98 in Calm     97% 0.00 in
06:04 66.6 °F 65.7 °F 29.98 in Calm     97% 0.00 in
06:09 66.6 °F 65.7 °F 29.98 in Calm     97% 0.00 in
06:14 66.6 °F 65.7 °F 29.98 in Calm     97% 0.00 in
06:19 66.7 °F 65.8 °F 29.98 in Calm     97% 0.00 in
06:24 66.7 °F 65.8 °F 29.98 in Calm     97% 0.00 in
06:29 66.9 °F 66.0 °F 29.98 in Calm     97% 0.00 in
06:34 66.9 °F 66.0 °F 29.98 in Calm     97% 0.00 in
Atglen Borough, Pennsylvania, USA
Compliments of Weather Underground - 2.25 mb